Airfield :
LOGIN :

Register | Disclaimer

   EN    FR    IT 

 










Legend :    VFR   Marginal VFR   IFR   Intensive IFR   Very Intensive IFR
Visi :
Ceiling :
>= 8 km
>= 3000ft
5 to 8 km
1000 to 3000 ft
1500m to 5 km
500 to 1000 ft
800 to 1500m
200 to 500 ft
< 800m
< 200 ft
Symbols :   Thunderstorms  Fog  Heavy snow  Heavy precipitations  Wind > 20 kt
SIGMETs :     Misc.  Thunderstorms  Icing  Turbulence  Mountain Waves  Volcanic Ashes






- Airport Elevation : 622 ft
- IATA code : BRS


EGGD - Bristol Int.

CURRENT METAR :
  • 100420Z AUTO 17011KT 9999 SCT021 SCT027 06/04 Q1019

EXPIRED METARs :
  • 100350Z AUTO 20012KT 9999 BKN025 OVC029 06/04 Q1020
  • 100320Z AUTO 20012KT 9999 BKN023 06/04 Q1021
  • 100250Z AUTO 20010KT 9999 NCD 05/03 Q1022
  • 100220Z AUTO 20010KT 9999 NCD 05/03 Q1022
  • 100150Z AUTO 20008KT 9999 NCD 04/02 Q1022

TAF TAF EGGD
Valid from the 10 at 00:00 until the 11 at 00:00 UTC


092300Z 1000/1024 22006KT CAVOK
BECMG 1000/1003 16012KT
PROB30
TEMPO 1003/1006 18016G26KT BKN040
BECMG 1006/1009 19020KT FEW008 BKN030
BECMG 1009/1012 20025G35KT BKN008
TEMPO 1009/1017 4000 RA
PROB40
TEMPO 1014/1017 20030G45KT 1200 +RA BKN004
BECMG 1017/1019 27020G30KT FEW008 SCT030
TEMPO 1017/1019 4000 RA BKN008
BECMG 1019/1022 26012KT
ATIS : +44 1275 473 666



MET'MAP, your aeronautical weather chart ! - Copyright ORBIFLY December 2007 - Disclaimer

ORBIFLY MET'MAP TEAM :

Programming & Development : Alexandra Zaïnal
Concept & original design : Baudouin d'Aumeries
Assistance for programming : Marc-Olivier Méhu
Technical & hardware support : Manuel Goepfert

Contact : metmap@orbifly.com




SOURCES & CREDITS :

   NOAA